Time,TemperatureF,DewpointF,PressureIn,WindDirection,WindDirectionDegrees,WindSpeedMPH,WindSpeedGustMPH,Humidity,HourlyPrecipIn,Conditions,Clouds,dailyrainin,SoftwareType,DateUTC
2013-06-13 00:01:00,78.1,71.1,29.95,West,270,0.0,1.8,79,0.00,,,0.00,WUHU216HW,2013-06-13 04:01:00,
2013-06-13 00:06:00,77.9,70.9,29.95,West,270,0.4,1.8,79,0.00,,,0.00,WUHU216HW,2013-06-13 04:06:00,
2013-06-13 00:11:00,77.9,70.9,29.95,West,270,0.4,1.6,79,0.00,,,0.00,WUHU216HW,2013-06-13 04:11:00,
2013-06-13 00:16:00,77.8,71.1,29.95,WNW,293,0.0,1.8,80,0.00,,,0.00,WUHU216HW,2013-06-13 04:16:00,
2013-06-13 00:21:00,77.4,70.7,29.95,West,270,1.3,1.8,80,0.00,,,0.00,WUHU216HW,2013-06-13 04:21:00,
2013-06-13 00:26:00,77.4,71.1,29.95,West,270,1.6,2.2,81,0.00,,,0.00,WUHU216HW,2013-06-13 04:26:00,
2013-06-13 00:31:00,77.2,70.9,29.95,WNW,293,1.1,2.5,81,0.00,,,0.00,WUHU216HW,2013-06-13 04:31:00,
2013-06-13 00:36:00,77.2,70.9,29.95,WNW,293,1.3,2.5,81,0.00,,,0.00,WUHU216HW,2013-06-13 04:36:00,
2013-06-13 00:41:00,77.0,70.7,29.94,WNW,293,1.3,2.5,81,0.00,,,0.00,WUHU216HW,2013-06-13 04:41:00,
2013-06-13 00:46:00,77.2,70.9,29.95,WNW,293,0.7,2.5,81,0.00,,,0.00,WUHU216HW,2013-06-13 04:46:00,
2013-06-13 00:51:00,77.2,70.9,29.95,WNW,293,1.1,2.9,81,0.00,,,0.00,WUHU216HW,2013-06-13 04:51:00,
2013-06-13 00:56:00,77.2,70.9,29.95,WNW,293,1.3,2.9,81,0.00,,,0.00,WUHU216HW,2013-06-13 04:56:00,
2013-06-13 01:01:00,77.4,71.1,29.95,NW,315,1.3,2.7,81,0.00,,,0.00,WUHU216HW,2013-06-13 05:01:00,
2013-06-13 01:06:00,77.4,71.1,29.95,NW,315,1.1,2.7,81,0.00,,,0.00,WUHU216HW,2013-06-13 05:06:00,
2013-06-13 01:11:00,77.2,70.9,29.95,WNW,293,1.1,2.5,81,0.00,,,0.00,WUHU216HW,2013-06-13 05:11:00,
2013-06-13 01:16:00,77.2,70.9,29.95,NW,315,1.8,1.8,81,0.00,,,0.00,WUHU216HW,2013-06-13 05:16:00,
2013-06-13 01:21:00,77.2,70.9,29.95,North,0,1.8,3.6,81,0.00,,,0.00,WUHU216HW,2013-06-13 05:21:00,
2013-06-13 01:26:00,77.2,70.9,29.95,WNW,293,1.1,3.6,81,0.00,,,0.00,WUHU216HW,2013-06-13 05:26:00,
2013-06-13 01:31:00,77.2,70.9,29.96,WNW,293,1.6,2.5,81,0.00,,,0.00,WUHU216HW,2013-06-13 05:31:00,
2013-06-13 01:36:00,77.0,70.7,29.96,NW,315,0.7,2.5,81,0.00,,,0.00,WUHU216HW,2013-06-13 05:36:00,
2013-06-13 01:41:00,77.0,70.7,29.96,NW,315,0.4,1.6,81,0.00,,,0.00,WUHU216HW,2013-06-13 05:41:00,
2013-06-13 01:46:00,76.9,70.9,29.96,WNW,293,0.7,1.3,82,0.00,,,0.00,WUHU216HW,2013-06-13 05:46:00,
2013-06-13 01:51:00,76.9,70.9,29.96,WNW,293,1.1,1.1,82,0.00,,,0.00,WUHU216HW,2013-06-13 05:51:00,
2013-06-13 01:56:00,76.7,70.7,29.96,WNW,293,1.1,1.8,82,0.00,,,0.00,WUHU216HW,2013-06-13 05:56:00,
2013-06-13 02:01:00,76.5,70.9,29.96,WNW,293,0.4,2.0,83,0.00,,,0.00,WUHU216HW,2013-06-13 06:01:00,
2013-06-13 02:06:00,76.3,70.8,29.97,WNW,293,0.9,2.0,83,0.00,,,0.00,WUHU216HW,2013-06-13 06:06:00,
2013-06-13 02:11:00,76.3,70.8,29.97,WNW,293,1.6,1.8,83,0.00,,,0.00,WUHU216HW,2013-06-13 06:11:00,
2013-06-13 02:16:00,76.3,71.1,29.97,WNW,293,1.3,2.0,84,0.00,,,0.00,WUHU216HW,2013-06-13 06:16:00,
2013-06-13 02:21:00,76.3,71.1,29.96,WNW,293,0.9,2.0,84,0.00,,,0.00,WUHU216HW,2013-06-13 06:21:00,
2013-06-13 02:26:00,76.3,71.1,29.96,WNW,293,0.9,1.8,84,0.00,,,0.00,WUHU216HW,2013-06-13 06:26:00,
2013-06-13 02:31:00,76.3,71.1,29.96,WNW,293,1.3,2.0,84,0.00,,,0.00,WUHU216HW,2013-06-13 06:31:00,
2013-06-13 02:37:00,76.3,71.1,29.96,WNW,293,1.1,2.5,84,0.00,,,0.00,WUHU216HW,2013-06-13 06:37:00,
2013-06-13 02:42:00,76.3,71.1,29.96,WNW,293,2.0,2.7,84,0.00,,,0.00,WUHU216HW,2013-06-13 06:42:00,
2013-06-13 02:47:00,76.3,71.1,29.96,NW,315,1.8,3.4,84,0.00,,,0.00,WUHU216HW,2013-06-13 06:47:00,
2013-06-13 02:53:00,76.3,71.1,29.96,NW,315,2.2,3.6,84,0.00,,,0.00,WUHU216HW,2013-06-13 06:53:00,
2013-06-13 02:58:00,76.3,71.1,29.96,WNW,293,1.3,3.6,84,0.00,,,0.00,WUHU216HW,2013-06-13 06:58:00,
2013-06-13 03:03:00,76.1,71.3,29.96,WNW,293,1.8,2.7,85,0.00,,,0.00,WUHU216HW,2013-06-13 07:03:00,
2013-06-13 03:08:00,76.0,71.2,29.96,WNW,293,2.0,2.7,85,0.00,,,0.00,WUHU216HW,2013-06-13 07:08:00,
2013-06-13 03:13:00,76.0,71.2,29.96,WNW,293,1.8,2.7,85,0.00,,,0.00,WUHU216HW,2013-06-13 07:13:00,
2013-06-13 03:18:00,76.0,71.2,29.96,NNW,338,1.1,2.7,85,0.00,,,0.00,WUHU216HW,2013-06-13 07:18:00,
2013-06-13 03:23:00,75.8,71.0,29.96,NNW,338,1.1,2.5,85,0.00,,,0.00,WUHU216HW,2013-06-13 07:23:00,
2013-06-13 03:28:00,75.8,71.0,29.96,WNW,293,1.6,2.5,85,0.00,,,0.00,WUHU216HW,2013-06-13 07:28:00,
2013-06-13 03:34:00,75.8,71.0,29.95,WNW,293,1.1,2.5,85,0.00,,,0.00,WUHU216HW,2013-06-13 07:34:00,
2013-06-13 03:39:00,75.6,70.8,29.95,WNW,293,1.8,2.5,85,0.00,,,0.00,WUHU216HW,2013-06-13 07:39:00,
2013-06-13 03:44:00,75.6,70.8,29.95,WNW,293,1.1,2.7,85,0.00,,,0.00,WUHU216HW,2013-06-13 07:44:00,
2013-06-13 03:49:00,75.4,70.7,29.94,WNW,293,2.5,3.4,85,0.00,,,0.00,WUHU216HW,2013-06-13 07:49:00,
2013-06-13 03:54:00,75.4,70.7,29.95,NW,315,1.6,3.4,85,0.00,,,0.00,WUHU216HW,2013-06-13 07:54:00,
2013-06-13 03:59:00,75.4,70.7,29.95,WNW,293,1.6,2.5,85,0.00,,,0.00,WUHU216HW,2013-06-13 07:59:00,
2013-06-13 04:04:00,75.2,70.5,29.95,WNW,293,0.2,2.2,85,0.00,,,0.00,WUHU216HW,2013-06-13 08:04:00,
2013-06-13 04:09:00,75.2,70.5,29.95,WNW,293,0.7,2.2,85,0.00,,,0.00,WUHU216HW,2013-06-13 08:09:00,
2013-06-13 04:14:00,75.1,70.3,29.95,NW,315,1.1,1.3,85,0.00,,,0.00,WUHU216HW,2013-06-13 08:14:00,
2013-06-13 04:19:00,74.9,70.1,29.94,WNW,293,0.4,1.8,85,0.00,,,0.00,WUHU216HW,2013-06-13 08:19:00,
2013-06-13 04:24:00,74.9,70.1,29.94,NW,315,0.9,1.8,85,0.00,,,0.00,WUHU216HW,2013-06-13 08:24:00,
2013-06-13 04:29:00,74.9,70.1,29.94,WNW,293,1.6,2.0,85,0.00,,,0.00,WUHU216HW,2013-06-13 08:29:00,
2013-06-13 04:34:00,74.7,69.9,29.94,WNW,293,1.3,2.0,85,0.00,,,0.00,WUHU216HW,2013-06-13 08:34:00,
2013-06-13 04:39:00,74.7,69.9,29.94,WSW,248,1.8,2.7,85,0.00,,,0.00,WUHU216HW,2013-06-13 08:39:00,
2013-06-13 04:44:00,74.7,69.9,29.94,WNW,293,0.9,2.7,85,0.00,,,0.00,WUHU216HW,2013-06-13 08:44:00,
2013-06-13 04:49:00,74.7,69.9,29.94,NW,315,1.3,2.7,85,0.00,,,0.00,WUHU216HW,2013-06-13 08:49:00,
2013-06-13 04:54:00,74.7,69.9,29.94,NW,315,1.6,2.7,85,0.00,,,0.00,WUHU216HW,2013-06-13 08:54:00,
2013-06-13 04:59:00,74.7,69.9,29.94,WNW,293,1.6,2.5,85,0.00,,,0.00,WUHU216HW,2013-06-13 08:59:00,
2013-06-13 05:05:00,74.7,69.9,29.94,WNW,293,1.1,2.5,85,0.00,,,0.00,WUHU216HW,2013-06-13 09:05:00,
2013-06-13 05:10:00,74.7,69.9,29.93,NW,315,1.1,2.5,85,0.00,,,0.00,WUHU216HW,2013-06-13 09:10:00,
2013-06-13 05:15:00,74.7,69.9,29.93,West,270,2.2,2.5,85,0.00,,,0.00,WUHU216HW,2013-06-13 09:15:00,
2013-06-13 05:20:00,74.5,69.8,29.93,West,270,2.5,2.5,85,0.00,,,0.00,WUHU216HW,2013-06-13 09:20:00,
2013-06-13 05:25:00,74.5,69.8,29.93,WNW,293,1.1,2.5,85,0.00,,,0.00,WUHU216HW,2013-06-13 09:25:00,
2013-06-13 05:30:00,74.3,69.6,29.93,West,270,1.3,2.5,85,0.00,,,0.00,WUHU216HW,2013-06-13 09:30:00,
2013-06-13 05:35:00,74.3,69.6,29.93,WNW,293,1.8,2.5,85,0.00,,,0.00,WUHU216HW,2013-06-13 09:35:00,
2013-06-13 05:41:00,74.3,69.6,29.93,WNW,293,0.7,2.5,85,0.00,,,0.00,WUHU216HW,2013-06-13 09:41:00,
2013-06-13 05:46:00,74.3,69.6,29.93,WNW,293,1.1,2.2,85,0.00,,,0.00,WUHU216HW,2013-06-13 09:46:00,
2013-06-13 05:51:00,74.3,69.6,29.93,WNW,293,1.8,2.5,85,0.00,,,0.00,WUHU216HW,2013-06-13 09:51:00,
2013-06-13 05:56:00,74.2,69.4,29.92,NW,315,0.7,2.5,85,0.00,,,0.00,WUHU216HW,2013-06-13 09:56:00,
2013-06-13 06:01:00,74.2,69.4,29.92,WNW,293,1.8,2.2,85,0.00,,,0.00,WUHU216HW,2013-06-13 10:01:00,
2013-06-13 06:06:00,74.2,69.4,29.92,WNW,293,1.1,2.9,85,0.00,,,0.00,WUHU216HW,2013-06-13 10:06:00,
2013-06-13 06:11:00,74.2,69.4,29.92,West,270,2.7,2.9,85,0.00,,,0.00,WUHU216HW,2013-06-13 10:11:00,
2013-06-13 06:16:00,74.2,69.0,29.92,West,270,1.8,2.7,84,0.00,,,0.00,WUHU216HW,2013-06-13 10:16:00,
2013-06-13 06:21:00,74.2,69.4,29.92,West,270,2.2,2.7,85,0.00,,,0.00,WUHU216HW,2013-06-13 10:21:00,
2013-06-13 06:26:00,74.2,69.0,29.91,WNW,293,1.8,2.5,84,0.00,,,0.00,WUHU216HW,2013-06-13 10:26:00,
2013-06-13 06:31:00,74.2,69.0,29.92,WNW,293,0.7,2.5,84,0.00,,,0.00,WUHU216HW,2013-06-13 10:31:00,
2013-06-13 06:36:00,74.2,69.0,29.91,WNW,293,0.2,2.7,84,0.00,,,0.00,WUHU216HW,2013-06-13 10:36:00,
2013-06-13 06:41:00,74.2,69.0,29.92,WNW,293,1.3,2.7,84,0.00,,,0.00,WUHU216HW,2013-06-13 10:41:00,
2013-06-13 06:46:00,74.2,69.0,29.91,NNW,338,1.8,3.1,84,0.00,,,0.00,WUHU216HW,2013-06-13 10:46:00,
2013-06-13 06:51:00,74.2,69.0,29.92,West,270,1.6,3.1,84,0.00,,,0.00,WUHU216HW,2013-06-13 10:51:00,
2013-06-13 06:56:00,74.2,69.0,29.91,NW,315,1.8,3.1,84,0.00,,,0.00,WUHU216HW,2013-06-13 10:56:00,
2013-06-13 07:01:00,74.3,69.2,29.91,WNW,293,1.3,3.1,84,0.00,,,0.00,WUHU216HW,2013-06-13 11:01:00,
2013-06-13 07:06:00,74.3,69.2,29.92,WNW,293,2.2,3.4,84,0.00,,,0.00,WUHU216HW,2013-06-13 11:06:00,
2013-06-13 07:11:00,74.5,69.4,29.91,West,270,1.8,3.4,84,0.00,,,0.00,WUHU216HW,2013-06-13 11:11:00,
2013-06-13 07:16:00,74.5,69.4,29.91,West,270,3.4,3.4,84,0.00,,,0.00,WUHU216HW,2013-06-13 11:16:00,
2013-06-13 07:21:00,74.5,69.4,29.91,WNW,293,2.2,3.4,84,0.00,,,0.00,WUHU216HW,2013-06-13 11:21:00,
2013-06-13 07:26:00,74.5,69.4,29.90,WNW,293,1.8,3.4,84,0.00,,,0.00,WUHU216HW,2013-06-13 11:26:00,
2013-06-13 07:31:00,74.7,69.6,29.91,NW,315,1.8,3.1,84,0.00,,,0.00,WUHU216HW,2013-06-13 11:31:00,
2013-06-13 07:36:00,74.9,69.8,29.91,WNW,293,1.8,3.4,84,0.00,,,0.00,WUHU216HW,2013-06-13 11:36:00,
2013-06-13 07:42:00,74.9,69.4,29.91,WNW,293,2.0,3.4,83,0.00,,,0.00,WUHU216HW,2013-06-13 11:42:00,
2013-06-13 07:47:00,74.9,69.4,29.90,WNW,293,2.7,2.9,83,0.00,,,0.00,WUHU216HW,2013-06-13 11:47:00,
2013-06-13 07:53:00,74.9,69.4,29.90,WNW,293,1.8,2.9,83,0.00,,,0.00,WUHU216HW,2013-06-13 11:53:00,
2013-06-13 07:57:00,75.1,69.6,29.90,NE,45,2.5,3.6,83,0.00,,,0.00,WUHU216HW,2013-06-13 11:57:00,
2013-06-13 08:03:00,75.1,69.6,29.90,NNW,338,1.3,4.0,83,0.00,,,0.00,WUHU216HW,2013-06-13 12:03:00,
2013-06-13 08:08:00,75.2,69.8,29.90,WNW,293,2.2,4.0,83,0.00,,,0.00,WUHU216HW,2013-06-13 12:08:00,
2013-06-13 08:13:00,75.4,69.9,29.90,WNW,293,1.6,3.8,83,0.00,,,0.00,WUHU216HW,2013-06-13 12:13:00,
2013-06-13 08:18:00,75.6,70.1,29.90,NW,315,2.7,3.8,83,0.00,,,0.00,WUHU216HW,2013-06-13 12:18:00,
2013-06-13 08:24:00,75.8,70.3,29.90,West,270,2.2,3.6,83,0.00,,,0.00,WUHU216HW,2013-06-13 12:24:00,
2013-06-13 08:29:00,75.8,70.3,29.89,NW,315,1.1,4.5,83,0.00,,,0.00,WUHU216HW,2013-06-13 12:29:00,
2013-06-13 08:34:00,76.0,70.5,29.89,WSW,248,2.5,4.5,83,0.00,,,0.00,WUHU216HW,2013-06-13 12:34:00,
2013-06-13 08:39:00,76.0,70.5,29.90,WSW,248,1.8,3.4,83,0.00,,,0.00,WUHU216HW,2013-06-13 12:39:00,
2013-06-13 08:44:00,76.0,70.1,29.90,WNW,293,2.5,4.0,82,0.00,,,0.00,WUHU216HW,2013-06-13 12:44:00,
2013-06-13 08:49:00,76.1,70.3,29.89,WSW,248,1.6,4.0,82,0.00,,,0.00,WUHU216HW,2013-06-13 12:49:00,
2013-06-13 08:54:00,76.3,70.5,29.89,WSW,248,2.5,4.0,82,0.00,,,0.00,WUHU216HW,2013-06-13 12:54:00,
2013-06-13 08:59:00,76.5,70.6,29.89,WNW,293,3.4,4.7,82,0.00,,,0.00,WUHU216HW,2013-06-13 12:59:00,
2013-06-13 09:04:00,76.5,70.3,29.89,West,270,2.9,4.7,81,0.00,,,0.00,WUHU216HW,2013-06-13 13:04:00,
2013-06-13 09:09:00,76.5,70.6,29.89,WSW,248,2.2,4.3,82,0.00,,,0.00,WUHU216HW,2013-06-13 13:09:00,
2013-06-13 09:14:00,76.5,70.6,29.89,SSE,158,1.1,4.5,82,0.00,,,0.00,WUHU216HW,2013-06-13 13:14:00,
2013-06-13 09:19:00,76.5,70.6,29.89,WNW,293,1.8,4.5,82,0.00,,,0.00,WUHU216HW,2013-06-13 13:19:00,
2013-06-13 09:24:00,76.7,70.4,29.88,North,0,2.5,3.8,81,0.00,,,0.00,WUHU216HW,2013-06-13 13:24:00,
2013-06-13 09:29:00,76.7,70.4,29.89,WNW,293,3.1,3.8,81,0.00,,,0.00,WUHU216HW,2013-06-13 13:29:00,
2013-06-13 09:34:00,76.7,70.4,29.89,WNW,293,3.6,4.3,81,0.00,,,0.00,WUHU216HW,2013-06-13 13:34:00,
2013-06-13 09:39:00,76.7,70.4,29.88,WNW,293,4.0,4.9,81,0.00,,,0.00,WUHU216HW,2013-06-13 13:39:00,
2013-06-13 09:44:00,76.7,70.4,29.88,NW,315,2.5,4.9,81,0.00,,,0.00,WUHU216HW,2013-06-13 13:44:00,
2013-06-13 09:49:00,76.9,70.6,29.87,West,270,4.7,4.7,81,0.00,,,0.00,WUHU216HW,2013-06-13 13:49:00,
2013-06-13 09:54:00,77.0,70.7,29.87,WSW,248,3.4,4.7,81,0.00,,,0.00,WUHU216HW,2013-06-13 13:54:00,
2013-06-13 09:59:00,77.2,70.9,29.87,West,270,2.5,4.7,81,0.00,,,0.00,WUHU216HW,2013-06-13 13:59:00,
2013-06-13 10:04:00,77.4,70.7,29.87,West,270,3.6,3.6,80,0.00,,,0.00,WUHU216HW,2013-06-13 14:04:00,
2013-06-13 10:09:00,77.4,71.1,29.86,WNW,293,2.5,3.6,81,0.00,,,0.00,WUHU216HW,2013-06-13 14:09:00,
2013-06-13 10:14:00,77.4,70.7,29.86,North,0,2.5,3.8,80,0.00,,,0.00,WUHU216HW,2013-06-13 14:14:00,
2013-06-13 10:19:00,77.6,70.9,29.85,WNW,293,4.5,4.7,80,0.00,,,0.00,WUHU216HW,2013-06-13 14:19:00,
2013-06-13 10:24:00,77.6,70.9,29.85,West,270,2.5,4.7,80,0.00,,,0.00,WUHU216HW,2013-06-13 14:24:00,
2013-06-13 10:29:00,77.6,70.9,29.85,West,270,2.9,5.1,80,0.00,,,0.00,WUHU216HW,2013-06-13 14:29:00,
2013-06-13 10:34:00,77.8,70.8,29.85,WNW,293,3.6,5.6,79,0.00,,,0.00,WUHU216HW,2013-06-13 14:34:00,
2013-06-13 10:39:00,77.8,71.1,29.84,WSW,248,2.9,5.6,80,0.00,,,0.00,WUHU216HW,2013-06-13 14:39:00,
2013-06-13 10:44:00,78.1,71.1,29.84,WNW,293,3.8,4.9,79,0.00,,,0.00,WUHU216HW,2013-06-13 14:44:00,
2013-06-13 10:49:00,77.9,70.9,29.85,West,270,3.6,5.4,79,0.00,,,0.00,WUHU216HW,2013-06-13 14:49:00,
2013-06-13 10:54:00,77.8,71.1,29.85,WNW,293,2.7,5.4,80,0.00,,,0.00,WUHU216HW,2013-06-13 14:54:00,
2013-06-13 10:59:00,77.6,70.9,29.84,West,270,3.4,4.7,80,0.00,,,0.00,WUHU216HW,2013-06-13 14:59:00,
2013-06-13 11:04:00,77.8,71.1,29.84,WSW,248,3.4,4.7,80,0.00,,,0.00,WUHU216HW,2013-06-13 15:04:00,
2013-06-13 11:09:00,77.8,71.1,29.84,West,270,1.6,4.0,80,0.00,,,0.00,WUHU216HW,2013-06-13 15:09:00,
2013-06-13 11:14:00,77.8,71.5,29.84,WNW,293,1.6,3.4,81,0.00,,,0.00,WUHU216HW,2013-06-13 15:14:00,
2013-06-13 11:19:00,77.6,71.3,29.84,NW,315,1.6,3.4,81,0.00,,,0.00,WUHU216HW,2013-06-13 15:19:00,
2013-06-13 11:24:00,77.4,71.1,29.84,West,270,2.5,3.4,81,0.00,,,0.00,WUHU216HW,2013-06-13 15:24:00,
2013-06-13 11:29:00,77.4,71.1,29.85,NNW,338,1.6,3.4,81,0.00,,,0.00,WUHU216HW,2013-06-13 15:29:00,
2013-06-13 11:34:00,77.4,71.1,29.85,NNW,338,0.7,3.4,81,0.00,,,0.00,WUHU216HW,2013-06-13 15:34:00,
2013-06-13 11:39:00,77.8,71.5,29.84,West,270,3.8,4.0,81,0.00,,,0.00,WUHU216HW,2013-06-13 15:39:00,
2013-06-13 11:44:00,77.9,71.6,29.85,North,0,2.5,4.5,81,0.00,,,0.00,WUHU216HW,2013-06-13 15:44:00,
2013-06-13 11:50:00,78.1,71.8,29.84,WNW,293,2.7,4.5,81,0.00,,,0.00,WUHU216HW,2013-06-13 15:50:00,
2013-06-13 11:55:00,78.3,71.6,29.83,NW,315,2.2,4.7,80,0.00,,,0.00,WUHU216HW,2013-06-13 15:55:00,
2013-06-13 11:59:00,78.5,72.2,29.83,WNW,293,1.8,4.7,81,0.00,,,0.00,WUHU216HW,2013-06-13 15:59:00,
2013-06-13 12:05:00,78.8,72.2,29.83,WNW,293,2.5,5.6,80,0.00,,,0.00,WUHU216HW,2013-06-13 16:05:00,
2013-06-13 12:09:00,79.2,72.5,29.83,South,180,4.0,5.6,80,0.00,,,0.00,WUHU216HW,2013-06-13 16:09:00,
2013-06-13 12:14:00,79.4,72.7,29.83,NW,315,1.1,4.7,80,0.00,,,0.00,WUHU216HW,2013-06-13 16:14:00,
2013-06-13 12:19:00,79.7,72.7,29.83,West,270,4.7,5.1,79,0.00,,,0.00,WUHU216HW,2013-06-13 16:19:00,
2013-06-13 12:24:00,79.9,72.5,29.83,NW,315,3.1,5.4,78,0.00,,,0.00,WUHU216HW,2013-06-13 16:24:00,
2013-06-13 12:29:00,79.7,72.3,29.83,West,270,2.9,5.4,78,0.00,,,0.00,WUHU216HW,2013-06-13 16:29:00,
2013-06-13 12:34:00,79.4,71.9,29.82,WNW,293,1.1,4.7,78,0.00,,,0.00,WUHU216HW,2013-06-13 16:34:00,
2013-06-13 12:39:00,79.2,72.5,29.82,NW,315,2.2,4.5,80,0.00,,,0.00,WUHU216HW,2013-06-13 16:39:00,
2013-06-13 12:44:00,78.8,72.2,29.82,NNW,338,2.9,4.7,80,0.00,,,0.00,WUHU216HW,2013-06-13 16:44:00,
2013-06-13 12:49:00,78.8,71.8,29.82,West,270,2.7,4.9,79,0.00,,,0.00,WUHU216HW,2013-06-13 16:49:00,
2013-06-13 12:54:00,79.2,72.2,29.81,NW,315,3.4,5.1,79,0.00,,,0.00,WUHU216HW,2013-06-13 16:54:00,
2013-06-13 12:59:00,79.7,72.7,29.80,West,270,3.1,5.1,79,0.00,,,0.00,WUHU216HW,2013-06-13 16:59:00,
2013-06-13 13:04:00,79.9,72.9,29.80,NW,315,2.0,4.7,79,0.00,,,0.00,WUHU216HW,2013-06-13 17:04:00,
2013-06-13 13:09:00,80.3,73.3,29.80,WSW,248,2.7,4.7,79,0.00,,,0.00,WUHU216HW,2013-06-13 17:09:00,
2013-06-13 13:14:00,80.5,73.0,29.80,West,270,4.3,6.3,78,0.00,,,0.00,WUHU216HW,2013-06-13 17:14:00,
2013-06-13 13:19:00,80.6,72.8,29.80,WNW,293,3.1,6.3,77,0.00,,,0.00,WUHU216HW,2013-06-13 17:19:00,
2013-06-13 13:24:00,80.8,73.4,29.80,SW,225,2.5,4.9,78,0.00,,,0.00,WUHU216HW,2013-06-13 17:24:00,
2013-06-13 13:29:00,81.0,73.5,29.81,WSW,248,3.6,4.0,78,0.00,,,0.00,WUHU216HW,2013-06-13 17:29:00,
2013-06-13 13:34:00,81.0,73.5,29.81,NW,315,2.5,4.0,78,0.00,,,0.00,WUHU216HW,2013-06-13 17:34:00,
2013-06-13 13:39:00,80.6,73.2,29.81,North,0,1.8,3.8,78,0.00,,,0.00,WUHU216HW,2013-06-13 17:39:00,
2013-06-13 13:44:00,80.5,73.5,29.80,NNW,338,1.8,3.8,79,0.00,,,0.00,WUHU216HW,2013-06-13 17:44:00,
2013-06-13 13:49:00,80.5,73.8,29.80,West,270,2.7,3.8,80,0.00,,,0.00,WUHU216HW,2013-06-13 17:49:00,
2013-06-13 13:54:00,80.8,74.2,29.80,WNW,293,2.9,3.8,80,0.00,,,0.00,WUHU216HW,2013-06-13 17:54:00,
2013-06-13 13:59:00,81.2,74.5,29.80,WNW,293,1.8,3.8,80,0.00,,,0.00,WUHU216HW,2013-06-13 17:59:00,
2013-06-13 14:04:00,81.7,75.1,29.78,West,270,2.5,3.4,80,0.00,,,0.00,WUHU216HW,2013-06-13 18:04:00,
2013-06-13 14:09:00,82.1,75.0,29.79,WNW,293,2.5,4.0,79,0.00,,,0.00,WUHU216HW,2013-06-13 18:09:00,
2013-06-13 14:14:00,82.3,74.8,29.80,West,270,5.1,5.1,78,0.00,,,0.00,WUHU216HW,2013-06-13 18:14:00,
2013-06-13 14:19:00,82.1,74.2,29.80,NW,315,3.4,5.1,77,0.00,,,0.00,WUHU216HW,2013-06-13 18:19:00,
2013-06-13 14:24:00,81.4,73.5,29.80,WSW,248,2.5,5.1,77,0.00,,,0.00,WUHU216HW,2013-06-13 18:24:00,
2013-06-13 14:29:00,81.0,73.5,29.80,NNW,338,1.8,3.6,78,0.00,,,0.00,WUHU216HW,2013-06-13 18:29:00,
2013-06-13 14:34:00,80.6,73.2,29.80,WNW,293,2.5,3.6,78,0.00,,,0.00,WUHU216HW,2013-06-13 18:34:00,
2013-06-13 14:39:00,80.1,73.1,29.80,West,270,3.4,3.8,79,0.00,,,0.00,WUHU216HW,2013-06-13 18:39:00,
2013-06-13 14:44:00,79.9,72.9,29.80,WNW,293,2.2,3.8,79,0.00,,,0.00,WUHU216HW,2013-06-13 18:44:00,
2013-06-13 14:49:00,79.6,72.6,29.81,WNW,293,3.4,4.0,79,0.00,,,0.00,WUHU216HW,2013-06-13 18:49:00,
2013-06-13 14:54:00,79.4,72.7,29.80,WNW,293,2.2,4.5,80,0.00,,,0.00,WUHU216HW,2013-06-13 18:54:00,
2013-06-13 14:59:00,79.2,72.5,29.80,WNW,293,1.6,4.5,80,0.00,,,0.00,WUHU216HW,2013-06-13 18:59:00,
2013-06-13 15:04:00,78.8,72.5,29.81,WNW,293,2.5,3.4,81,0.00,,,0.00,WUHU216HW,2013-06-13 19:04:00,
2013-06-13 15:09:00,78.5,72.2,29.81,NW,315,1.3,3.6,81,0.00,,,0.00,WUHU216HW,2013-06-13 19:09:00,
2013-06-13 15:14:00,78.1,72.9,29.82,WNW,293,2.9,3.8,84,0.00,,,0.00,WUHU216HW,2013-06-13 19:14:00,
2013-06-13 15:19:00,77.2,73.1,29.83,West,270,4.9,5.4,87,0.05,,,0.05,WUHU216HW,2013-06-13 19:19:00,
2013-06-13 15:24:00,75.6,70.5,29.81,NW,315,1.1,5.4,84,0.07,,,0.07,WUHU216HW,2013-06-13 19:24:00,
2013-06-13 15:29:00,74.0,68.9,29.80,West,270,1.3,4.9,84,0.07,,,0.07,WUHU216HW,2013-06-13 19:29:00,
2013-06-13 15:34:00,73.1,68.3,29.82,West,270,0.0,2.0,85,0.07,,,0.07,WUHU216HW,2013-06-13 19:34:00,
2013-06-13 15:39:00,72.9,67.8,29.80,SE,135,0.0,1.3,84,0.07,,,0.07,WUHU216HW,2013-06-13 19:39:00,
2013-06-13 15:44:00,72.7,67.6,29.81,North,0,1.8,2.2,84,0.07,,,0.07,WUHU216HW,2013-06-13 19:44:00,
2013-06-13 15:49:00,72.7,68.0,29.81,North,0,1.6,2.5,85,0.07,,,0.07,WUHU216HW,2013-06-13 19:49:00,
2013-06-13 15:54:00,72.7,68.3,29.81,North,0,0.7,2.5,86,0.07,,,0.07,WUHU216HW,2013-06-13 19:54:00,
2013-06-13 15:59:00,72.7,68.3,29.82,North,0,0.4,2.2,86,0.07,,,0.07,WUHU216HW,2013-06-13 19:59:00,
2013-06-13 16:04:00,72.5,68.1,29.84,North,0,0.0,2.2,86,0.07,,,0.07,WUHU216HW,2013-06-13 20:04:00,
2013-06-13 16:09:00,72.4,67.6,29.85,NE,45,0.0,1.1,85,0.07,,,0.07,WUHU216HW,2013-06-13 20:09:00,
2013-06-13 16:14:00,72.4,67.6,29.85,WNW,293,0.0,0.7,85,0.06,,,0.07,WUHU216HW,2013-06-13 20:14:00,
2013-06-13 16:19:00,72.2,67.8,29.85,NNE,23,0.2,0.7,86,0.01,,,0.07,WUHU216HW,2013-06-13 20:19:00,
2013-06-13 16:24:00,72.2,67.8,29.85,NNE,23,0.0,0.7,86,0.00,,,0.07,WUHU216HW,2013-06-13 20:24:00,
2013-06-13 16:29:00,72.0,67.6,29.85,NNE,23,0.0,0.7,86,0.00,,,0.07,WUHU216HW,2013-06-13 20:29:00,
2013-06-13 16:34:00,71.8,67.4,29.85,West,270,0.9,1.6,86,0.00,,,0.07,WUHU216HW,2013-06-13 20:34:00,
2013-06-13 16:39:00,71.8,67.8,29.85,North,0,0.0,1.6,87,0.00,,,0.07,WUHU216HW,2013-06-13 20:39:00,
2013-06-13 16:44:00,72.0,68.0,29.85,NNE,23,0.2,1.3,87,0.00,,,0.07,WUHU216HW,2013-06-13 20:44:00,
2013-06-13 16:49:00,72.2,67.8,29.85,East,90,0.0,0.7,86,0.00,,,0.07,WUHU216HW,2013-06-13 20:49:00,
2013-06-13 16:54:00,72.4,68.0,29.85,East,90,0.0,0.7,86,0.00,,,0.07,WUHU216HW,2013-06-13 20:54:00,
2013-06-13 16:59:00,72.4,68.0,29.86,East,90,0.0,0.7,86,0.00,,,0.07,WUHU216HW,2013-06-13 20:59:00,
2013-06-13 17:04:00,72.9,68.5,29.86,East,90,0.0,0.4,86,0.00,,,0.07,WUHU216HW,2013-06-13 21:04:00,
2013-06-13 17:09:00,73.3,68.9,29.86,SSW,203,1.6,1.8,86,0.00,,,0.07,WUHU216HW,2013-06-13 21:09:00,
2013-06-13 17:14:00,73.6,68.9,29.86,SW,225,0.0,1.8,85,0.00,,,0.07,WUHU216HW,2013-06-13 21:14:00,
2013-06-13 17:19:00,74.0,69.2,29.86,SW,225,0.0,1.8,85,0.00,,,0.07,WUHU216HW,2013-06-13 21:19:00,
2013-06-13 17:24:00,74.7,69.6,29.86,NNW,338,0.0,1.1,84,0.00,,,0.07,WUHU216HW,2013-06-13 21:24:00,
2013-06-13 17:29:00,75.6,69.8,29.85,NNW,338,0.0,1.1,82,0.00,,,0.07,WUHU216HW,2013-06-13 21:29:00,
2013-06-13 17:34:00,75.6,69.4,29.85,NNE,23,1.6,2.5,81,0.00,,,0.07,WUHU216HW,2013-06-13 21:34:00,
2013-06-13 17:39:00,75.6,69.1,29.86,North,0,0.0,2.5,80,0.00,,,0.07,WUHU216HW,2013-06-13 21:39:00,
2013-06-13 17:44:00,75.2,68.8,29.85,NE,45,0.0,2.5,80,0.00,,,0.07,WUHU216HW,2013-06-13 21:44:00,
2013-06-13 17:49:00,74.9,68.1,29.85,NNW,338,0.2,1.1,79,0.00,,,0.07,WUHU216HW,2013-06-13 21:49:00,
2013-06-13 17:54:00,74.7,68.2,29.85,North,0,1.1,1.6,80,0.00,,,0.07,WUHU216HW,2013-06-13 21:54:00,
2013-06-13 17:59:00,74.9,68.8,29.85,NE,45,0.4,1.6,81,0.00,,,0.07,WUHU216HW,2013-06-13 21:59:00,
2013-06-13 18:04:00,74.7,68.6,29.85,NNW,338,0.4,1.3,81,0.00,,,0.07,WUHU216HW,2013-06-13 22:04:00,
2013-06-13 18:10:00,74.5,68.0,29.85,North,0,0.0,1.1,80,0.00,,,0.07,WUHU216HW,2013-06-13 22:10:00,
2013-06-13 18:15:00,74.5,68.0,29.85,North,0,0.7,2.0,80,0.00,,,0.07,WUHU216HW,2013-06-13 22:15:00,
2013-06-13 18:20:00,74.2,67.3,29.85,North,0,0.4,2.0,79,0.00,,,0.07,WUHU216HW,2013-06-13 22:20:00,
2013-06-13 18:25:00,73.6,67.1,29.85,North,0,0.4,2.2,80,0.00,,,0.07,WUHU216HW,2013-06-13 22:25:00,
2013-06-13 18:31:00,73.1,66.6,29.85,NNE,23,0.7,2.2,80,0.00,,,0.07,WUHU216HW,2013-06-13 22:31:00,
2013-06-13 18:36:00,72.7,66.6,29.85,North,0,1.1,1.8,81,0.00,,,0.07,WUHU216HW,2013-06-13 22:36:00,
2013-06-13 18:41:00,72.5,66.1,29.85,NE,45,0.0,1.8,80,0.00,,,0.07,WUHU216HW,2013-06-13 22:41:00,
2013-06-13 18:47:00,72.4,66.3,29.85,NNW,338,0.9,1.8,81,0.00,,,0.07,WUHU216HW,2013-06-13 22:47:00,
2013-06-13 18:52:00,72.4,66.6,29.85,NNW,338,0.2,1.6,82,0.00,,,0.07,WUHU216HW,2013-06-13 22:52:00,
2013-06-13 18:57:00,72.2,66.4,29.86,North,0,1.1,1.1,82,0.00,,,0.07,WUHU216HW,2013-06-13 22:57:00,
2013-06-13 19:02:00,72.2,66.4,29.86,NE,45,1.3,4.0,82,0.00,,,0.07,WUHU216HW,2013-06-13 23:02:00,
2013-06-13 19:07:00,72.2,66.4,29.86,NNW,338,0.4,4.0,82,0.00,,,0.07,WUHU216HW,2013-06-13 23:07:00,
2013-06-13 19:12:00,72.0,66.3,29.86,NW,315,1.1,1.3,82,0.00,,,0.07,WUHU216HW,2013-06-13 23:12:00,
2013-06-13 19:17:00,71.8,66.3,29.86,NW,315,0.9,1.3,83,0.00,,,0.07,WUHU216HW,2013-06-13 23:17:00,
2013-06-13 19:23:00,71.6,66.2,29.86,NW,315,0.4,1.1,83,0.00,,,0.07,WUHU216HW,2013-06-13 23:23:00,
2013-06-13 19:28:00,71.6,66.2,29.86,NNW,338,0.0,1.6,83,0.00,,,0.07,WUHU216HW,2013-06-13 23:28:00,
2013-06-13 19:33:00,71.6,66.2,29.86,NNW,338,0.9,1.6,83,0.00,,,0.07,WUHU216HW,2013-06-13 23:33:00,
2013-06-13 19:38:00,71.6,66.5,29.86,NNW,338,0.0,1.1,84,0.00,,,0.07,WUHU216HW,2013-06-13 23:38:00,
2013-06-13 19:44:00,71.6,66.5,29.86,North,0,0.7,1.3,84,0.00,,,0.07,WUHU216HW,2013-06-13 23:44:00,
2013-06-13 19:49:00,71.6,66.2,29.86,NNW,338,0.0,1.8,83,0.00,,,0.07,WUHU216HW,2013-06-13 23:49:00,
2013-06-13 19:57:00,71.6,66.2,29.86,NNW,338,0.0,0.4,83,0.00,,,0.07,WUHU216HW,2013-06-13 23:57:00,
2013-06-13 20:03:00,71.6,66.5,29.85,NNW,338,0.0,0.9,84,0.00,,,0.07,WUHU216HW,2013-06-14 00:03:00,
2013-06-13 20:08:00,71.3,66.2,29.85,WNW,293,0.0,1.1,84,0.00,,,0.07,WUHU216HW,2013-06-14 00:08:00,
2013-06-13 20:14:00,71.3,66.2,29.85,WNW,293,0.0,1.1,84,0.00,,,0.07,WUHU216HW,2013-06-14 00:14:00,
2013-06-13 20:20:00,71.3,66.2,29.86,WNW,293,0.4,0.4,84,0.00,,,0.07,WUHU216HW,2013-06-14 00:20:00,
2013-06-13 20:25:00,71.3,66.2,29.85,WNW,293,0.0,0.4,84,0.00,,,0.07,WUHU216HW,2013-06-14 00:25:00,
2013-06-13 20:30:00,71.3,66.2,29.86,WNW,293,0.4,0.4,84,0.00,,,0.07,WUHU216HW,2013-06-14 00:30:00,
2013-06-13 20:35:00,70.9,66.2,29.86,WNW,293,0.0,0.7,85,0.00,,,0.07,WUHU216HW,2013-06-14 00:35:00,
2013-06-13 20:39:00,70.7,66.0,29.87,WNW,293,0.0,0.7,85,0.00,,,0.07,WUHU216HW,2013-06-14 00:39:00,
2013-06-13 20:44:00,70.7,66.0,29.87,WNW,293,0.0,0.0,85,0.00,,,0.07,WUHU216HW,2013-06-14 00:44:00,
2013-06-13 20:49:00,70.7,66.0,29.87,WNW,293,0.0,0.0,85,0.00,,,0.07,WUHU216HW,2013-06-14 00:49:00,
2013-06-13 20:54:00,70.6,65.8,29.86,WNW,293,0.0,0.0,85,0.00,,,0.07,WUHU216HW,2013-06-14 00:54:00,
2013-06-13 21:00:00,70.7,66.0,29.87,WNW,293,0.0,0.0,85,0.00,,,0.07,WUHU216HW,2013-06-14 01:00:00,
2013-06-13 21:05:00,70.7,66.0,29.87,WNW,293,0.0,0.0,85,0.00,,,0.07,WUHU216HW,2013-06-14 01:05:00,
2013-06-13 21:11:00,70.7,66.0,29.86,WNW,293,0.0,0.0,85,0.00,,,0.07,WUHU216HW,2013-06-14 01:11:00,
2013-06-13 21:17:00,70.7,66.0,29.87,WNW,293,0.0,0.0,85,0.00,,,0.07,WUHU216HW,2013-06-14 01:17:00,
2013-06-13 21:23:00,70.6,65.8,29.87,WNW,293,0.0,1.1,85,0.00,,,0.07,WUHU216HW,2013-06-14 01:23:00,
2013-06-13 21:35:00,70.4,65.6,29.87,NNW,338,0.0,0.7,85,0.00,,,0.07,WUHU216HW,2013-06-14 01:35:00,
2013-06-13 21:40:00,70.4,65.6,29.88,NNW,338,0.0,0.7,85,0.00,,,0.07,WUHU216HW,2013-06-14 01:40:00,
2013-06-13 21:45:00,70.4,66.0,29.89,NNW,338,0.0,0.0,86,0.00,,,0.07,WUHU216HW,2013-06-14 01:45:00,
2013-06-13 21:50:00,70.4,66.0,29.90,NNW,338,0.9,1.1,86,0.00,,,0.07,WUHU216HW,2013-06-14 01:50:00,
2013-06-13 21:55:00,70.4,66.0,29.89,NW,315,1.1,1.8,86,0.05,,,0.12,WUHU216HW,2013-06-14 01:55:00,
2013-06-13 22:00:00,70.0,65.6,29.90,North,0,0.0,1.8,86,0.06,,,0.13,WUHU216HW,2013-06-14 02:00:00,
2013-06-13 22:05:00,69.7,65.3,29.90,NE,45,0.0,1.3,86,0.06,,,0.13,WUHU216HW,2013-06-14 02:05:00,
2013-06-13 22:10:00,69.5,65.4,29.91,NE,45,0.9,1.3,87,0.06,,,0.13,WUHU216HW,2013-06-14 02:10:00,
2013-06-13 22:15:00,69.3,65.3,29.91,NE,45,0.2,1.3,87,0.06,,,0.13,WUHU216HW,2013-06-14 02:15:00,
2013-06-13 22:20:00,69.3,65.3,29.92,North,0,0.4,0.9,87,0.06,,,0.13,WUHU216HW,2013-06-14 02:20:00,
2013-06-13 22:25:00,69.1,65.1,29.92,North,0,0.0,1.3,87,0.06,,,0.13,WUHU216HW,2013-06-14 02:25:00,
2013-06-13 22:31:00,69.1,65.1,29.92,NNW,338,0.2,1.1,87,0.06,,,0.13,WUHU216HW,2013-06-14 02:31:00,
2013-06-13 22:36:00,68.9,64.9,29.92,North,0,0.0,0.9,87,0.06,,,0.13,WUHU216HW,2013-06-14 02:36:00,
2013-06-13 22:41:00,68.8,64.7,29.93,North,0,0.2,2.2,87,0.06,,,0.13,WUHU216HW,2013-06-14 02:41:00,
2013-06-13 22:46:00,68.6,64.2,29.93,NNW,338,0.4,2.2,86,0.06,,,0.13,WUHU216HW,2013-06-14 02:46:00,
2013-06-13 22:51:00,68.4,64.0,29.93,NNE,23,0.4,2.2,86,0.06,,,0.13,WUHU216HW,2013-06-14 02:51:00,
2013-06-13 22:56:00,68.2,63.9,29.93,NNE,23,0.7,1.3,86,0.00,,,0.13,WUHU216HW,2013-06-14 02:56:00,
2013-06-13 23:01:00,68.0,63.7,29.93,North,0,0.0,1.6,86,0.00,,,0.13,WUHU216HW,2013-06-14 03:01:00,
2013-06-13 23:06:00,67.9,63.6,29.93,North,0,0.0,1.6,86,0.00,,,0.13,WUHU216HW,2013-06-14 03:06:00,
2013-06-13 23:11:00,67.7,63.4,29.93,North,0,0.2,1.1,86,0.00,,,0.13,WUHU216HW,2013-06-14 03:11:00,
2013-06-13 23:16:00,67.3,62.6,29.93,North,0,0.9,1.1,85,0.00,,,0.13,WUHU216HW,2013-06-14 03:16:00,
2013-06-13 23:21:00,67.1,62.8,29.93,North,0,0.4,1.1,86,0.00,,,0.13,WUHU216HW,2013-06-14 03:21:00,
2013-06-13 23:26:00,67.0,62.3,29.93,NNE,23,2.0,2.0,85,0.00,,,0.13,WUHU216HW,2013-06-14 03:26:00,
2013-06-13 23:31:00,66.8,62.1,29.93,North,0,1.1,3.1,85,0.00,,,0.13,WUHU216HW,2013-06-14 03:31:00,
2013-06-13 23:36:00,66.6,61.9,29.93,North,0,1.1,3.4,85,0.00,,,0.13,WUHU216HW,2013-06-14 03:36:00,
2013-06-13 23:41:00,66.6,61.9,29.93,North,0,0.4,3.4,85,0.00,,,0.13,WUHU216HW,2013-06-14 03:41:00,
2013-06-13 23:46:00,66.4,61.7,29.93,North,0,0.4,2.7,85,0.00,,,0.13,WUHU216HW,2013-06-14 03:46:00,
2013-06-13 23:51:00,66.4,61.4,29.93,North,0,1.8,1.8,84,0.00,,,0.13,WUHU216HW,2013-06-14 03:51:00,
2013-06-13 23:56:00,66.4,61.4,29.93,North,0,0.4,1.8,84,0.00,,,0.13,WUHU216HW,2013-06-14 03:56:00,